sensor_id;sensor_type;location;lat;lon;timestamp;pressure;altitude;pressure_sealevel;temperature;humidity
23223;BME280;11780;13.904;100.620;2023-08-30T00:00:11;100691.03;;;32.18;64.20
23223;BME280;11780;13.904;100.620;2023-08-30T00:02:42;100698.19;;;32.19;64.49
23223;BME280;11780;13.904;100.620;2023-08-30T00:05:13;100688.25;;;32.18;64.37
23223;BME280;11780;13.904;100.620;2023-08-30T00:07:43;100700.47;;;32.17;64.40
23223;BME280;11780;13.904;100.620;2023-08-30T00:10:14;100705.03;;;32.22;64.74
23223;BME280;11780;13.904;100.620;2023-08-30T00:12:45;100703.41;;;32.21;64.81
23223;BME280;11780;13.904;100.620;2023-08-30T00:15:15;100710.88;;;32.20;64.64
23223;BME280;11780;13.904;100.620;2023-08-30T00:17:46;100714.47;;;32.21;64.93
23223;BME280;11780;13.904;100.620;2023-08-30T00:20:16;100720.81;;;32.22;65.21
23223;BME280;11780;13.904;100.620;2023-08-30T00:22:47;100731.09;;;32.21;65.66
23223;BME280;11780;13.904;100.620;2023-08-30T00:25:20;100731.09;;;32.21;65.46
23223;BME280;11780;13.904;100.620;2023-08-30T00:27:51;100729.94;;;32.22;65.73
23223;BME280;11780;13.904;100.620;2023-08-30T00:30:21;100736.28;;;32.23;65.51
23223;BME280;11780;13.904;100.620;2023-08-30T00:32:52;100738.56;;;32.20;65.66
23223;BME280;11780;13.904;100.620;2023-08-30T00:35:22;100738.56;;;32.20;66.06
23223;BME280;11780;13.904;100.620;2023-08-30T00:37:52;100735.47;;;32.22;66.35
23223;BME280;11780;13.904;100.620;2023-08-30T00:40:24;100746.53;;;32.22;66.67
23223;BME280;11780;13.904;100.620;2023-08-30T00:42:57;100745.72;;;32.22;67.13
23223;BME280;11780;13.904;100.620;2023-08-30T00:45:27;100739.03;;;32.23;67.07
23223;BME280;11780;13.904;100.620;2023-08-30T00:47:58;100741.81;;;32.23;67.58
23223;BME280;11780;13.904;100.620;2023-08-30T00:50:28;100744.22;;;32.24;67.24
23223;BME280;11780;13.904;100.620;2023-08-30T00:52:59;100747.34;;;32.23;67.62
23223;BME280;11780;13.904;100.620;2023-08-30T00:55:35;100744.56;;;32.23;67.59
23223;BME280;11780;13.904;100.620;2023-08-30T00:58:07;100748.97;;;32.24;67.64
23223;BME280;11780;13.904;100.620;2023-08-30T01:00:39;100748.34;;;32.18;67.71
23223;BME280;11780;13.904;100.620;2023-08-30T01:03:10;100751.25;;;32.22;67.98
23223;BME280;11780;13.904;100.620;2023-08-30T01:05:40;100760.84;;;32.24;67.63
23223;BME280;11780;13.904;100.620;2023-08-30T01:08:11;100763.94;;;32.23;67.71
23223;BME280;11780;13.904;100.620;2023-08-30T01:13:23;100770.75;;;32.25;67.39
23223;BME280;11780;13.904;100.620;2023-08-30T01:15:58;100757.28;;;32.24;67.66
23223;BME280;11780;13.904;100.620;2023-08-30T01:18:32;100765.22;;;32.25;67.15
23223;BME280;11780;13.904;100.620;2023-08-30T01:21:04;100770.63;;;32.30;68.04
23223;BME280;11780;13.904;100.620;2023-08-30T01:24:08;100771.44;;;32.31;67.96
23223;BME280;11780;13.904;100.620;2023-08-30T01:26:45;100773.72;;;32.29;67.48
23223;BME280;11780;13.904;100.620;2023-08-30T01:29:21;100770.75;;;32.34;67.55
23223;BME280;11780;13.904;100.620;2023-08-30T01:31:53;100769.47;;;32.31;67.16
23223;BME280;11780;13.904;100.620;2023-08-30T01:34:25;100774.53;;;32.29;66.67
23223;BME280;11780;13.904;100.620;2023-08-30T01:36:59;100778.44;;;32.28;66.52
23223;BME280;11780;13.904;100.620;2023-08-30T01:39:30;100786.88;;;32.32;66.31
23223;BME280;11780;13.904;100.620;2023-08-30T01:42:01;100785.59;;;32.29;66.26
23223;BME280;11780;13.904;100.620;2023-08-30T01:44:33;100786.88;;;32.32;66.04
23223;BME280;11780;13.904;100.620;2023-08-30T01:47:04;100785.75;;;32.33;66.19
23223;BME280;11780;13.904;100.620;2023-08-30T01:49:34;100790.97;;;32.34;66.10
23223;BME280;11780;13.904;100.620;2023-08-30T01:52:07;100790.34;;;32.29;66.05
23223;BME280;11780;13.904;100.620;2023-08-30T01:54:40;100789.66;;;32.32;66.49
23223;BME280;11780;13.904;100.620;2023-08-30T01:57:11;100787.38;;;32.34;65.75
23223;BME280;11780;13.904;100.620;2023-08-30T01:59:41;100787.72;;;32.32;65.28
23223;BME280;11780;13.904;100.620;2023-08-30T02:02:11;100785.91;;;32.37;65.12
23223;BME280;11780;13.904;100.620;2023-08-30T02:04:42;100791.44;;;32.37;66.21
23223;BME280;11780;13.904;100.620;2023-08-30T02:07:25;100799.41;;;32.38;65.63
23223;BME280;11780;13.904;100.620;2023-08-30T02:10:02;100789.59;;;32.41;65.57
23223;BME280;11780;13.904;100.620;2023-08-30T02:12:56;100799.06;;;32.40;66.19
23223;BME280;11780;13.904;100.620;2023-08-30T02:15:27;100787.97;;;32.40;66.04
23223;BME280;11780;13.904;100.620;2023-08-30T02:17:59;100795.34;;;32.36;66.08
23223;BME280;11780;13.904;100.620;2023-08-30T02:20:30;100799.06;;;32.40;65.14
23223;BME280;11780;13.904;100.620;2023-08-30T02:23:01;100794.03;;;32.33;64.95
23223;BME280;11780;13.904;100.620;2023-08-30T02:25:40;100798.44;;;32.34;65.19
23223;BME280;11780;13.904;100.620;2023-08-30T02:28:11;100800.22;;;32.39;64.90
23223;BME280;11780;13.904;100.620;2023-08-30T02:30:41;100804.28;;;32.41;64.98
23223;BME280;11780;13.904;100.620;2023-08-30T02:33:11;100800.03;;;32.44;64.89
23223;BME280;11780;13.904;100.620;2023-08-30T02:35:43;100802.47;;;32.45;64.45
23223;BME280;11780;13.904;100.620;2023-08-30T02:38:14;100800.16;;;32.47;64.61
23223;BME280;11780;13.904;100.620;2023-08-30T02:40:44;100796.47;;;32.43;64.37
23223;BME280;11780;13.904;100.620;2023-08-30T02:43:16;100799.72;;;32.45;64.30
23223;BME280;11780;13.904;100.620;2023-08-30T02:45:47;100800.38;;;32.42;64.43
23223;BME280;11780;13.904;100.620;2023-08-30T02:48:18;100795.78;;;32.46;64.02
23223;BME280;11780;13.904;100.620;2023-08-30T02:50:49;100791.41;;;32.45;64.42
23223;BME280;11780;13.904;100.620;2023-08-30T02:53:20;100785.53;;;32.47;64.35
23223;BME280;11780;13.904;100.620;2023-08-30T02:55:50;100791.84;;;32.47;64.16
23223;BME280;11780;13.904;100.620;2023-08-30T02:58:21;100790.72;;;32.48;64.17
23223;BME280;11780;13.904;100.620;2023-08-30T03:00:58;100795.09;;;32.49;64.14
23223;BME280;11780;13.904;100.620;2023-08-30T03:03:28;100793.81;;;32.47;63.67
23223;BME280;11780;13.904;100.620;2023-08-30T03:05:59;100791.19;;;32.50;63.55
23223;BME280;11780;13.904;100.620;2023-08-30T03:08:29;100793.16;;;32.50;63.45
23223;BME280;11780;13.904;100.620;2023-08-30T03:11:10;100792.69;;;32.48;63.02
23223;BME280;11780;13.904;100.620;2023-08-30T03:13:46;100782.41;;;32.48;63.16
23223;BME280;11780;13.904;100.620;2023-08-30T03:16:17;100786.66;;;32.46;63.30
23223;BME280;11780;13.904;100.620;2023-08-30T03:18:48;100783.53;;;32.47;63.18
23223;BME280;11780;13.904;100.620;2023-08-30T03:21:18;100779.97;;;32.47;62.43
23223;BME280;11780;13.904;100.620;2023-08-30T03:23:49;100773.97;;;32.45;62.83
23223;BME280;11780;13.904;100.620;2023-08-30T03:26:19;100775.72;;;32.49;61.93
23223;BME280;11780;13.904;100.620;2023-08-30T03:28:49;100775.72;;;32.49;62.22
23223;BME280;11780;13.904;100.620;2023-08-30T03:31:21;100772.28;;;32.53;62.14
23223;BME280;11780;13.904;100.620;2023-08-30T03:33:52;100772.28;;;32.53;61.49
23223;BME280;11780;13.904;100.620;2023-08-30T03:36:22;100773.13;;;32.53;61.96
23223;BME280;11780;13.904;100.620;2023-08-30T03:38:52;100775.53;;;32.55;61.70
23223;BME280;11780;13.904;100.620;2023-08-30T03:41:23;100778.78;;;32.57;62.03
23223;BME280;11780;13.904;100.620;2023-08-30T03:43:53;100768.84;;;32.56;62.25
23223;BME280;11780;13.904;100.620;2023-08-30T03:46:24;100769.66;;;32.56;61.37
23223;BME280;11780;13.904;100.620;2023-08-30T03:48:55;100769.34;;;32.58;61.29
23223;BME280;11780;13.904;100.620;2023-08-30T03:51:26;100770.13;;;32.58;61.21
23223;BME280;11780;13.904;100.620;2023-08-30T03:53:56;100770.00;;;32.55;61.42
23223;BME280;11780;13.904;100.620;2023-08-30T03:56:27;100779.28;;;32.59;61.82
23223;BME280;11780;13.904;100.620;2023-08-30T03:58:57;100774.06;;;32.57;61.00
23223;BME280;11780;13.904;100.620;2023-08-30T04:01:28;100774.06;;;32.57;60.39
23223;BME280;11780;13.904;100.620;2023-08-30T04:03:58;100769.47;;;32.61;61.06
23223;BME280;11780;13.904;100.620;2023-08-30T04:06:28;100771.75;;;32.59;61.91
23223;BME280;11780;13.904;100.620;2023-08-30T04:08:59;100770.97;;;32.59;60.71
23223;BME280;11780;13.904;100.620;2023-08-30T04:11:29;100766.22;;;32.59;61.21
23223;BME280;11780;13.904;100.620;2023-08-30T04:13:59;100765.06;;;32.60;60.70
23223;BME280;11780;13.904;100.620;2023-08-30T04:16:30;100767.06;;;32.60;60.80
23223;BME280;11780;13.904;100.620;2023-08-30T04:19:00;100768.69;;;32.61;60.21
23223;BME280;11780;13.904;100.620;2023-08-30T04:21:30;100768.69;;;32.61;60.30
23223;BME280;11780;13.904;100.620;2023-08-30T04:24:01;100759.88;;;32.59;60.53
23223;BME280;11780;13.904;100.620;2023-08-30T04:26:32;100756.91;;;32.64;60.44
23223;BME280;11780;13.904;100.620;2023-08-30T04:29:02;100759.22;;;32.62;60.45
23223;BME280;11780;13.904;100.620;2023-08-30T04:31:33;100748.16;;;32.62;60.12
23223;BME280;11780;13.904;100.620;2023-08-30T04:34:03;100748.28;;;32.65;60.88
23223;BME280;11780;13.904;100.620;2023-08-30T04:36:35;100748.94;;;32.62;60.95
23223;BME280;11780;13.904;100.620;2023-08-30T04:39:06;100730.84;;;32.65;60.56
23223;BME280;11780;13.904;100.620;2023-08-30T04:41:36;100738.22;;;32.61;60.84
23223;BME280;11780;13.904;100.620;2023-08-30T04:44:07;100725.69;;;32.55;61.08
23223;BME280;11780;13.904;100.620;2023-08-30T04:46:37;100734.31;;;32.62;60.93
23223;BME280;11780;13.904;100.620;2023-08-30T04:49:08;100719.16;;;32.59;60.67
23223;BME280;11780;13.904;100.620;2023-08-30T04:51:38;100714.91;;;32.62;60.52
23223;BME280;11780;13.904;100.620;2023-08-30T04:54:09;100712.28;;;32.65;60.60
23223;BME280;11780;13.904;100.620;2023-08-30T04:56:39;100700.72;;;32.63;60.92
23223;BME280;11780;13.904;100.620;2023-08-30T04:59:10;100694.84;;;32.65;60.35
23223;BME280;11780;13.904;100.620;2023-08-30T05:01:44;100690.44;;;32.64;60.62
23223;BME280;11780;13.904;100.620;2023-08-30T05:04:16;100683.44;;;32.67;60.64
23223;BME280;11780;13.904;100.620;2023-08-30T05:06:46;100679.16;;;32.69;60.39
23223;BME280;11780;13.904;100.620;2023-08-30T05:09:16;100671.06;;;32.64;60.78
23223;BME280;11780;13.904;100.620;2023-08-30T05:11:47;100669.38;;;32.72;60.56
23223;BME280;11780;13.904;100.620;2023-08-30T05:14:17;100678.03;;;32.70;60.21
23223;BME280;11780;13.904;100.620;2023-08-30T05:16:49;100674.59;;;32.73;60.41
23223;BME280;11780;13.904;100.620;2023-08-30T05:19:20;100668.22;;;32.73;60.61
23223;BME280;11780;13.904;100.620;2023-08-30T05:21:50;100656.00;;;32.74;60.35
23223;BME280;11780;13.904;100.620;2023-08-30T05:24:24;100659.22;;;32.76;60.08
23223;BME280;11780;13.904;100.620;2023-08-30T05:26:56;100656.16;;;32.77;60.47
23223;BME280;11780;13.904;100.620;2023-08-30T05:29:27;100647.84;;;32.77;60.46
23223;BME280;11780;13.904;100.620;2023-08-30T05:31:58;100635.56;;;32.78;60.28
23223;BME280;11780;13.904;100.620;2023-08-30T05:35:06;100642.97;;;32.74;60.56
23223;BME280;11780;13.904;100.620;2023-08-30T05:38:03;100635.13;;;32.76;60.35
23223;BME280;11780;13.904;100.620;2023-08-30T05:40:48;100628.44;;;32.77;60.47
23223;BME280;11780;13.904;100.620;2023-08-30T05:43:18;100624.50;;;32.78;60.56
23223;BME280;11780;13.904;100.620;2023-08-30T05:45:49;100624.06;;;32.76;60.51
23223;BME280;11780;13.904;100.620;2023-08-30T05:48:19;100617.38;;;32.77;60.47
23223;BME280;11780;13.904;100.620;2023-08-30T05:50:50;100621.41;;;32.80;60.08
23223;BME280;11780;13.904;100.620;2023-08-30T05:53:20;100622.91;;;32.77;60.25
23223;BME280;11780;13.904;100.620;2023-08-30T05:55:50;100612.78;;;32.82;59.82
23223;BME280;11780;13.904;100.620;2023-08-30T05:58:21;100615.41;;;32.78;60.12
23223;BME280;11780;13.904;100.620;2023-08-30T06:00:52;100604.47;;;32.82;60.04
23223;BME280;11780;13.904;100.620;2023-08-30T06:03:22;100598.44;;;32.79;59.83
23223;BME280;11780;13.904;100.620;2023-08-30T06:05:53;100586.91;;;32.77;59.92
23223;BME280;11780;13.904;100.620;2023-08-30T06:08:23;100585.91;;;32.82;59.91
23223;BME280;11780;13.904;100.620;2023-08-30T06:10:54;100576.56;;;32.87;59.83
23223;BME280;11780;13.904;100.620;2023-08-30T06:13:24;100574.25;;;32.89;59.77
23223;BME280;11780;13.904;100.620;2023-08-30T06:15:54;100565.47;;;32.87;59.93
23223;BME280;11780;13.904;100.620;2023-08-30T06:18:29;100567.22;;;32.91;59.63
23223;BME280;11780;13.904;100.620;2023-08-30T06:21:00;100555.56;;;32.86;59.84
23223;BME280;11780;13.904;100.620;2023-08-30T06:23:30;100551.41;;;32.92;59.90
23223;BME280;11780;13.904;100.620;2023-08-30T06:26:00;100545.06;;;32.91;59.80
23223;BME280;11780;13.904;100.620;2023-08-30T06:28:33;100531.69;;;32.93;59.63
23223;BME280;11780;13.904;100.620;2023-08-30T06:31:05;100525.78;;;32.95;59.55
23223;BME280;11780;13.904;100.620;2023-08-30T06:33:35;100516.78;;;32.98;59.47
23223;BME280;11780;13.904;100.620;2023-08-30T06:36:06;100516.78;;;32.98;59.73
23223;BME280;11780;13.904;100.620;2023-08-30T06:38:37;100506.75;;;32.93;59.38
23223;BME280;11780;13.904;100.620;2023-08-30T06:41:07;100510.31;;;32.94;59.64
23223;BME280;11780;13.904;100.620;2023-08-30T06:43:38;100490.59;;;32.95;59.56
23223;BME280;11780;13.904;100.620;2023-08-30T06:46:08;100489.66;;;32.91;59.72
23223;BME280;11780;13.904;100.620;2023-08-30T06:48:38;100477.06;;;32.94;59.66
23223;BME280;11780;13.904;100.620;2023-08-30T06:51:09;100472.47;;;32.98;59.55
23223;BME280;11780;13.904;100.620;2023-08-30T06:53:40;100464.63;;;33.00;59.51
23223;BME280;11780;13.904;100.620;2023-08-30T06:56:10;100460.81;;;33.05;59.29
23223;BME280;11780;13.904;100.620;2023-08-30T06:58:41;100460.69;;;33.01;59.46
23223;BME280;11780;13.904;100.620;2023-08-30T07:01:12;100451.22;;;33.02;59.23
23223;BME280;11780;13.904;100.620;2023-08-30T07:03:42;100434.81;;;32.97;59.24
23223;BME280;11780;13.904;100.620;2023-08-30T07:06:13;100432.97;;;33.01;59.21
23223;BME280;11780;13.904;100.620;2023-08-30T07:08:44;100433.78;;;33.02;59.24
23223;BME280;11780;13.904;100.620;2023-08-30T07:11:14;100426.19;;;32.99;59.14
23223;BME280;11780;13.904;100.620;2023-08-30T07:14:00;100427.53;;;33.05;59.05
23223;BME280;11780;13.904;100.620;2023-08-30T07:16:31;100423.88;;;33.01;59.38
23223;BME280;11780;13.904;100.620;2023-08-30T07:19:01;100425.59;;;33.05;59.33
23223;BME280;11780;13.904;100.620;2023-08-30T07:21:32;100420.63;;;33.11;59.11
23223;BME280;11780;13.904;100.620;2023-08-30T07:24:06;100425.59;;;33.05;59.43
23223;BME280;11780;13.904;100.620;2023-08-30T07:26:37;100418.09;;;33.06;59.52
23223;BME280;11780;13.904;100.620;2023-08-30T07:29:09;100415.66;;;33.04;59.32
23223;BME280;11780;13.904;100.620;2023-08-30T07:31:39;100419.81;;;33.10;59.28
23223;BME280;11780;13.904;100.620;2023-08-30T07:34:11;100422.25;;;33.12;59.24
23223;BME280;11780;13.904;100.620;2023-08-30T07:36:42;100427.31;;;33.10;59.15
23223;BME280;11780;13.904;100.620;2023-08-30T07:39:15;100426.75;;;33.04;59.38
23223;BME280;11780;13.904;100.620;2023-08-30T07:41:45;100420.28;;;33.13;59.13
23223;BME280;11780;13.904;100.620;2023-08-30T07:44:15;100430.00;;;33.06;59.49
23223;BME280;11780;13.904;100.620;2023-08-30T07:46:46;100419.81;;;33.10;59.32
23223;BME280;11780;13.904;100.620;2023-08-30T07:49:17;100423.72;;;33.09;59.50
23223;BME280;11780;13.904;100.620;2023-08-30T07:51:47;100421.69;;;33.06;59.55
23223;BME280;11780;13.904;100.620;2023-08-30T07:54:18;100420.06;;;33.05;59.56
23223;BME280;11780;13.904;100.620;2023-08-30T07:56:48;100420.06;;;33.05;59.55
23223;BME280;11780;13.904;100.620;2023-08-30T07:59:18;100422.16;;;33.08;59.63
23223;BME280;11780;13.904;100.620;2023-08-30T08:01:49;100417.75;;;33.07;59.37
23223;BME280;11780;13.904;100.620;2023-08-30T08:04:21;100416.59;;;33.08;59.47
23223;BME280;11780;13.904;100.620;2023-08-30T08:06:52;100413.00;;;33.08;59.51
23223;BME280;11780;13.904;100.620;2023-08-30T08:09:23;100422.56;;;33.10;59.73
23223;BME280;11780;13.904;100.620;2023-08-30T08:11:54;100419.81;;;33.10;59.71
23223;BME280;11780;13.904;100.620;2023-08-30T08:14:27;100411.84;;;33.09;59.73
23223;BME280;11780;13.904;100.620;2023-08-30T08:16:57;100410.00;;;33.13;59.40
23223;BME280;11780;13.904;100.620;2023-08-30T08:19:28;100411.97;;;33.13;59.39
23223;BME280;11780;13.904;100.620;2023-08-30T08:21:59;100411.06;;;33.08;59.47
23223;BME280;11780;13.904;100.620;2023-08-30T08:24:29;100416.25;;;33.10;59.39
23223;BME280;11780;13.904;100.620;2023-08-30T08:26:59;100424.91;;;33.08;59.18
23223;BME280;11780;13.904;100.620;2023-08-30T08:29:31;100436.44;;;33.10;59.19
23223;BME280;11780;13.904;100.620;2023-08-30T08:32:01;100428.94;;;33.11;59.60
23223;BME280;11780;13.904;100.620;2023-08-30T08:34:32;100418.91;;;33.06;60.03
23223;BME280;11780;13.904;100.620;2023-08-30T08:37:02;100417.88;;;32.99;61.14
23223;BME280;11780;13.904;100.620;2023-08-30T08:39:33;100420.28;;;33.00;61.43
23223;BME280;11780;13.904;100.620;2023-08-30T08:42:04;100417.97;;;33.02;61.71
23223;BME280;11780;13.904;100.620;2023-08-30T08:44:35;100415.09;;;32.99;61.76
23223;BME280;11780;13.904;100.620;2023-08-30T08:47:06;100418.88;;;32.94;61.82
23223;BME280;11780;13.904;100.620;2023-08-30T08:49:37;100430.31;;;32.92;61.81
23223;BME280;11780;13.904;100.620;2023-08-30T08:52:08;100444.53;;;32.91;61.54
23223;BME280;11780;13.904;100.620;2023-08-30T08:54:56;100434.59;;;32.90;61.29
23223;BME280;11780;13.904;100.620;2023-08-30T08:57:29;100417.63;;;32.91;61.21
23223;BME280;11780;13.904;100.620;2023-08-30T09:00:03;100414.38;;;32.89;60.70
23223;BME280;11780;13.904;100.620;2023-08-30T09:02:33;100424.69;;;32.89;60.56
23223;BME280;11780;13.904;100.620;2023-08-30T09:05:04;100442.34;;;32.84;60.38
23223;BME280;11780;13.904;100.620;2023-08-30T09:07:35;100446.00;;;32.88;60.38
23223;BME280;11780;13.904;100.620;2023-08-30T09:10:06;100441.03;;;32.82;60.47
23223;BME280;11780;13.904;100.620;2023-08-30T09:12:37;100429.81;;;32.78;60.71
23223;BME280;11780;13.904;100.620;2023-08-30T09:15:07;100419.53;;;32.78;60.89
23223;BME280;11780;13.904;100.620;2023-08-30T09:17:39;100430.28;;;32.80;60.94
23223;BME280;11780;13.904;100.620;2023-08-30T09:20:10;100430.78;;;32.82;60.85
23223;BME280;11780;13.904;100.620;2023-08-30T09:22:42;100426.25;;;32.77;60.90
23223;BME280;11780;13.904;100.620;2023-08-30T09:25:24;100421.03;;;32.76;61.23
23223;BME280;11780;13.904;100.620;2023-08-30T09:27:58;100421.88;;;32.76;61.25
23223;BME280;11780;13.904;100.620;2023-08-30T09:30:29;100422.66;;;32.77;61.44
23223;BME280;11780;13.904;100.620;2023-08-30T09:33:02;100422.66;;;32.77;61.78
23223;BME280;11780;13.904;100.620;2023-08-30T09:35:43;100421.16;;;32.79;61.99
23223;BME280;11780;13.904;100.620;2023-08-30T09:38:17;100406.88;;;32.77;62.25
23223;BME280;11780;13.904;100.620;2023-08-30T09:40:48;100397.38;;;32.78;62.54
23223;BME280;11780;13.904;100.620;2023-08-30T09:43:24;100399.00;;;32.79;62.59
23223;BME280;11780;13.904;100.620;2023-08-30T09:46:24;100397.38;;;32.78;62.91
23223;BME280;11780;13.904;100.620;2023-08-30T09:49:14;100402.13;;;32.78;63.07
23223;BME280;11780;13.904;100.620;2023-08-30T09:51:47;100418.19;;;32.85;63.31
23223;BME280;11780;13.904;100.620;2023-08-30T09:54:19;100426.69;;;32.79;63.55
23223;BME280;11780;13.904;100.620;2023-08-30T09:57:10;100438.59;;;32.80;63.60
23223;BME280;11780;13.904;100.620;2023-08-30T09:59:42;100427.53;;;32.80;63.86
23223;BME280;11780;13.904;100.620;2023-08-30T10:02:12;100418.38;;;32.79;63.75
23223;BME280;11780;13.904;100.620;2023-08-30T10:04:44;100417.22;;;32.80;63.63
23223;BME280;11780;13.904;100.620;2023-08-30T10:07:15;100419.53;;;32.78;63.97
23223;BME280;11780;13.904;100.620;2023-08-30T10:09:48;100416.44;;;32.80;64.11
23223;BME280;11780;13.904;100.620;2023-08-30T10:12:37;100419.53;;;32.78;64.25
23223;BME280;11780;13.904;100.620;2023-08-30T10:15:21;100413.19;;;32.78;64.26
23223;BME280;11780;13.904;100.620;2023-08-30T10:17:54;100414.16;;;32.82;64.21
23223;BME280;11780;13.904;100.620;2023-08-30T10:20:28;100412.19;;;32.83;64.40
23223;BME280;11780;13.904;100.620;2023-08-30T10:22:59;100407.66;;;32.78;64.59
23223;BME280;11780;13.904;100.620;2023-08-30T10:25:32;100413.19;;;32.78;64.46
23223;BME280;11780;13.904;100.620;2023-08-30T10:28:04;100408.13;;;32.80;64.68
23223;BME280;11780;13.904;100.620;2023-08-30T10:30:35;100410.25;;;32.83;64.49
23223;BME280;11780;13.904;100.620;2023-08-30T10:33:12;100411.41;;;32.82;64.87
23223;BME280;11780;13.904;100.620;2023-08-30T10:35:48;100424.28;;;32.78;64.88
23223;BME280;11780;13.904;100.620;2023-08-30T10:38:26;100436.31;;;32.82;64.81
23223;BME280;11780;13.904;100.620;2023-08-30T22:20:44;100654.78;;;30.98;74.93
23223;BME280;11780;13.904;100.620;2023-08-30T22:23:14;100655.28;;;31.01;75.20
23223;BME280;11780;13.904;100.620;2023-08-30T22:25:45;100665.47;;;31.09;74.80
23223;BME280;11780;13.904;100.620;2023-08-30T22:28:16;100669.75;;;31.15;74.68
23223;BME280;11780;13.904;100.620;2023-08-30T22:30:46;100664.06;;;31.20;74.87
23223;BME280;11780;13.904;100.620;2023-08-30T22:33:16;100663.88;;;31.25;74.58
23223;BME280;11780;13.904;100.620;2023-08-30T22:35:48;100662.88;;;31.30;74.57
23223;BME280;11780;13.904;100.620;2023-08-30T22:38:18;100668.72;;;31.37;74.24
23223;BME280;11780;13.904;100.620;2023-08-30T22:40:48;100669.69;;;31.41;74.18
23223;BME280;11780;13.904;100.620;2023-08-30T22:43:19;100670.31;;;31.47;73.78
23223;BME280;11780;13.904;100.620;2023-08-30T22:45:50;100680.72;;;31.50;73.86
23223;BME280;11780;13.904;100.620;2023-08-30T22:48:21;100682.81;;;31.53;73.48
23223;BME280;11780;13.904;100.620;2023-08-30T22:50:51;100685.25;;;31.55;73.63
23223;BME280;11780;13.904;100.620;2023-08-30T22:54:15;100680.84;;;31.63;73.17
23223;BME280;11780;13.904;100.620;2023-08-30T22:56:49;100681.34;;;31.65;73.38
23223;BME280;11780;13.904;100.620;2023-08-30T22:59:19;100686.53;;;31.66;73.29
23223;BME280;11780;13.904;100.620;2023-08-30T23:01:50;100681.66;;;31.63;72.90
23223;BME280;11780;13.904;100.620;2023-08-30T23:04:21;100693.06;;;31.62;73.30
23223;BME280;11780;13.904;100.620;2023-08-30T23:06:52;100692.88;;;31.67;73.33
23223;BME280;11780;13.904;100.620;2023-08-30T23:09:23;100705.09;;;31.66;73.16
23223;BME280;11780;13.904;100.620;2023-08-30T23:11:53;100707.34;;;31.64;73.09
23223;BME280;11780;13.904;100.620;2023-08-30T23:14:25;100707.34;;;31.64;73.24
23223;BME280;11780;13.904;100.620;2023-08-30T23:16:55;100711.75;;;31.65;72.95
23223;BME280;11780;13.904;100.620;2023-08-30T23:19:26;100721.31;;;31.67;73.03
23223;BME280;11780;13.904;100.620;2023-08-30T23:21:59;100716.44;;;31.64;72.87
23223;BME280;11780;13.904;100.620;2023-08-30T23:24:33;100713.69;;;31.64;72.86
23223;BME280;11780;13.904;100.620;2023-08-30T23:27:04;100718.91;;;31.66;72.88
23223;BME280;11780;13.904;100.620;2023-08-30T23:29:35;100725.09;;;31.63;73.06
23223;BME280;11780;13.904;100.620;2023-08-30T23:32:06;100727.50;;;31.64;73.12
23223;BME280;11780;13.904;100.620;2023-08-30T23:34:38;100724.25;;;31.62;72.66
23223;BME280;11780;13.904;100.620;2023-08-30T23:37:08;100725.09;;;31.63;73.20
23223;BME280;11780;13.904;100.620;2023-08-30T23:39:39;100736.81;;;31.59;72.81
23223;BME280;11780;13.904;100.620;2023-08-30T23:42:09;100726.72;;;31.64;73.06
23223;BME280;11780;13.904;100.620;2023-08-30T23:44:39;100737.94;;;31.58;73.29
23223;BME280;11780;13.904;100.620;2023-08-30T23:47:09;100740.69;;;31.58;73.20
23223;BME280;11780;13.904;100.620;2023-08-30T23:49:39;100744.59;;;31.57;73.33
23223;BME280;11780;13.904;100.620;2023-08-30T23:52:09;100744.59;;;31.57;73.32
23223;BME280;11780;13.904;100.620;2023-08-30T23:54:40;100750.13;;;31.57;72.89
23223;BME280;11780;13.904;100.620;2023-08-30T23:57:10;100752.59;;;31.59;73.17
23223;BME280;11780;13.904;100.620;2023-08-30T23:59:40;100759.75;;;31.51;73.16
